createdAt,value
2022-10-18T00:00:14.573Z,9.50
2022-10-18T00:03:16.481Z,9.15
2022-10-18T00:06:18.402Z,8.05
2022-10-18T00:09:20.280Z,11.25
2022-10-18T00:12:22.298Z,12.50
2022-10-18T00:15:24.152Z,10.85
2022-10-18T00:18:26.988Z,11.60
2022-10-18T00:21:28.812Z,7.80
2022-10-18T00:24:30.919Z,10.82
2022-10-18T00:27:33.856Z,8.13
2022-10-18T00:30:35.686Z,7.95
2022-10-18T00:33:37.636Z,9.25
2022-10-18T00:36:39.647Z,10.75
2022-10-18T00:39:41.686Z,10.40
2022-10-18T00:42:46.153Z,10.43
2022-10-18T00:45:47.986Z,13.55
2022-10-18T00:48:50.612Z,9.75
2022-10-18T00:52:00.101Z,12.95
2022-10-18T00:55:03.653Z,11.80
2022-10-18T00:58:06.154Z,9.98
2022-10-18T01:01:08.032Z,7.75
2022-10-18T01:04:10.192Z,10.35
2022-10-18T01:07:47.292Z,9.98
2022-10-18T01:11:12.233Z,9.52
2022-10-18T01:14:19.908Z,10.10
2022-10-18T01:17:36.843Z,8.77
2022-10-18T01:20:51.532Z,8.57
2022-10-18T01:24:15.082Z,13.30
2022-10-18T01:27:41.064Z,9.02
2022-10-18T01:30:57.681Z,7.22
2022-10-18T01:34:08.053Z,13.50
2022-10-18T01:37:14.215Z,8.90
2022-10-18T01:40:19.419Z,11.57
2022-10-18T01:43:24.245Z,12.35
2022-10-18T01:46:28.343Z,13.70
2022-10-18T01:49:30.264Z,8.05
2022-10-18T01:52:32.405Z,9.63
2022-10-18T01:55:53.012Z,11.82
2022-10-18T01:59:05.704Z,7.47
2022-10-18T02:02:33.263Z,9.88
2022-10-18T02:05:56.303Z,7.90
2022-10-18T02:09:11.111Z,7.90
2022-10-18T02:12:15.166Z,7.85
2022-10-18T02:15:22.194Z,7.35
2022-10-18T02:18:29.833Z,12.82
2022-10-18T02:21:32.546Z,7.60
2022-10-18T02:24:41.809Z,10.45
2022-10-18T02:27:43.901Z,8.73
2022-10-18T02:31:23.428Z,9.45
2022-10-18T02:34:39.321Z,7.25
2022-10-18T02:37:41.975Z,8.40
2022-10-18T02:40:43.810Z,8.73
2022-10-18T02:43:45.631Z,7.70
2022-10-18T02:46:48.324Z,8.55
2022-10-18T02:49:50.145Z,8.27
2022-10-18T02:52:51.969Z,7.50
2022-10-18T02:55:53.850Z,9.50
2022-10-18T02:58:55.697Z,11.40
2022-10-18T03:01:57.606Z,9.30
2022-10-18T03:04:59.507Z,9.77
2022-10-18T03:08:04.005Z,8.90
2022-10-18T03:11:06.038Z,11.23
2022-10-18T03:14:07.911Z,12.80
2022-10-18T03:17:09.843Z,9.10
2022-10-18T03:20:11.945Z,6.32
2022-10-18T03:23:13.822Z,8.32
2022-10-18T03:26:15.733Z,9.43
2022-10-18T03:29:17.639Z,11.35
2022-10-18T03:32:19.509Z,7.28
2022-10-18T03:35:21.675Z,8.05
2022-10-18T03:41:25.473Z,9.70
2022-10-18T03:44:27.348Z,10.43
2022-10-18T03:47:29.205Z,8.85
2022-10-18T03:50:31.122Z,9.35
2022-10-18T03:53:32.987Z,7.57
2022-10-18T03:56:34.950Z,7.07
2022-10-18T03:59:36.790Z,15.55
2022-10-18T04:02:41.517Z,10.55
2022-10-18T04:05:43.400Z,8.68
2022-10-18T04:08:45.370Z,10.15
2022-10-18T04:11:49.773Z,6.93
2022-10-18T04:14:51.781Z,11.10
2022-10-18T04:17:53.592Z,12.18
2022-10-18T04:20:55.407Z,7.30
2022-10-18T04:23:57.213Z,10.57
2022-10-18T04:26:59.073Z,9.98
2022-10-18T04:30:00.914Z,7.85
2022-10-18T04:33:02.729Z,14.88
2022-10-18T04:36:05.021Z,9.52
2022-10-18T04:42:08.621Z,11.25
2022-10-18T04:45:10.789Z,8.23
2022-10-18T04:48:12.936Z,9.63
2022-10-18T04:51:14.810Z,10.57
2022-10-18T04:54:16.731Z,9.45
2022-10-18T04:57:18.729Z,8.50
2022-10-18T05:00:20.845Z,8.45
2022-10-18T05:03:22.723Z,9.25
2022-10-18T05:06:24.587Z,7.47
2022-10-18T05:09:26.518Z,9.88
2022-10-18T05:12:28.313Z,7.90
2022-10-18T05:15:30.358Z,6.93
2022-10-18T05:18:32.164Z,9.90
2022-10-18T05:21:34.143Z,13.43
2022-10-18T05:24:35.979Z,9.25
2022-10-18T05:27:37.900Z,11.77
2022-10-18T05:30:40.798Z,11.60
2022-10-18T05:33:42.620Z,8.55
2022-10-18T05:36:44.624Z,9.98
2022-10-18T05:39:46.487Z,10.88
2022-10-18T05:42:51.392Z,10.27
2022-10-18T05:45:53.286Z,8.02
2022-10-18T05:48:57.425Z,11.02
2022-10-18T05:51:59.302Z,8.32
2022-10-18T05:55:01.115Z,9.73
2022-10-18T05:58:03.457Z,9.88
2022-10-18T06:01:06.941Z,8.43
2022-10-18T06:04:09.505Z,10.13
2022-10-18T06:07:12.052Z,8.02
2022-10-18T06:10:13.991Z,8.20
2022-10-18T06:13:15.891Z,10.00
2022-10-18T06:16:20.837Z,8.23
2022-10-18T06:19:25.873Z,10.40
2022-10-18T06:22:27.752Z,11.90
2022-10-18T06:25:29.792Z,8.48
2022-10-18T06:28:33.700Z,11.23
2022-10-18T06:31:35.590Z,8.65
2022-10-18T06:34:37.549Z,10.13
2022-10-18T06:37:39.498Z,10.10
2022-10-18T06:40:41.369Z,9.80
2022-10-18T06:43:43.252Z,7.55
2022-10-18T06:46:46.457Z,8.77
2022-10-18T06:49:48.387Z,7.20
2022-10-18T06:52:52.672Z,9.95
2022-10-18T06:56:00.403Z,13.00
2022-10-18T06:59:02.489Z,10.77
2022-10-18T07:02:07.137Z,10.95
2022-10-18T07:05:10.053Z,10.00
2022-10-18T07:08:11.910Z,9.75
2022-10-18T07:11:18.942Z,7.85
2022-10-18T07:14:20.788Z,8.10
2022-10-18T07:17:22.632Z,9.60
2022-10-18T07:20:24.516Z,12.43
2022-10-18T07:23:26.331Z,10.27
2022-10-18T07:26:30.858Z,11.43
2022-10-18T07:29:33.516Z,8.75
2022-10-18T07:32:35.389Z,8.85
2022-10-18T07:35:37.190Z,10.52
2022-10-18T07:38:39.803Z,8.85
2022-10-18T07:41:41.733Z,11.65
2022-10-18T07:44:43.649Z,13.35
2022-10-18T07:47:45.476Z,8.98
2022-10-18T07:50:47.391Z,14.05
2022-10-18T07:53:49.303Z,8.10
2022-10-18T07:56:51.135Z,10.70
2022-10-18T07:59:53.068Z,11.93
2022-10-18T08:02:57.479Z,9.52
2022-10-18T08:05:59.349Z,9.82
2022-10-18T08:09:01.258Z,7.57
2022-10-18T08:12:03.187Z,7.82
2022-10-18T08:15:05.672Z,8.02
2022-10-18T08:18:07.613Z,12.40
2022-10-18T08:21:11.349Z,8.43
2022-10-18T08:24:13.188Z,13.07
2022-10-18T08:30:17.622Z,6.78
2022-10-18T08:36:21.325Z,10.75
2022-10-18T08:39:23.207Z,8.95
2022-10-18T08:42:51.319Z,8.27
2022-10-18T08:45:54.455Z,9.13
2022-10-18T08:48:57.956Z,10.13
2022-10-18T08:51:59.881Z,8.38
2022-10-18T08:55:29.082Z,10.85
2022-10-18T08:58:32.422Z,7.35
2022-10-18T09:02:00.621Z,7.03
2022-10-18T09:05:51.792Z,8.38
2022-10-18T09:09:21.308Z,10.23
2022-10-18T09:12:44.842Z,10.88
2022-10-18T09:16:04.884Z,10.73
2022-10-18T09:22:19.341Z,7.75
2022-10-18T09:25:26.474Z,7.70
2022-10-18T09:28:53.847Z,6.95
2022-10-18T09:32:15.507Z,8.38
2022-10-18T09:35:43.334Z,6.30
2022-10-18T09:38:49.253Z,8.55
2022-10-18T09:42:12.035Z,7.32
2022-10-18T09:45:24.194Z,6.78
2022-10-18T09:48:31.368Z,8.93
2022-10-18T09:51:39.811Z,6.72
2022-10-18T09:54:49.581Z,6.35
2022-10-18T09:57:58.401Z,9.35
2022-10-18T10:01:00.571Z,6.60
2022-10-18T10:04:02.698Z,7.00
2022-10-18T10:07:09.548Z,6.05
2022-10-18T10:10:17.744Z,6.15
2022-10-18T10:13:25.388Z,5.57
2022-10-18T10:16:27.473Z,5.85
2022-10-18T10:19:32.264Z,5.68
2022-10-18T10:22:42.590Z,7.70
2022-10-18T10:25:49.482Z,7.85
2022-10-18T10:28:51.922Z,6.30
2022-10-18T10:32:04.477Z,6.60
2022-10-18T10:35:42.212Z,5.72
2022-10-18T10:39:24.031Z,6.63
2022-10-18T10:42:25.915Z,5.07
2022-10-18T10:45:31.680Z,4.65
2022-10-18T10:48:41.231Z,5.50
2022-10-18T11:03:31.264Z,7.05
2022-10-18T11:06:48.656Z,6.38
2022-10-18T11:10:09.275Z,5.57
2022-10-18T11:13:16.588Z,6.30
2022-10-18T11:16:47.963Z,4.43
2022-10-18T11:20:04.252Z,6.03
2022-10-18T11:23:12.938Z,4.07
2022-10-18T11:26:23.849Z,5.32
2022-10-18T11:29:35.617Z,4.40
2022-10-18T11:32:44.537Z,6.13
2022-10-18T11:36:18.754Z,4.47
2022-10-18T11:39:23.732Z,5.13
2022-10-18T11:42:52.601Z,6.00
2022-10-18T11:46:06.170Z,5.28
2022-10-18T11:49:28.257Z,4.00
2022-10-18T11:52:59.446Z,4.20
2022-10-18T11:56:01.241Z,7.00
2022-10-18T12:02:38.574Z,5.70
2022-10-18T12:05:43.522Z,5.50
2022-10-18T12:09:01.335Z,4.63
2022-10-18T12:12:07.709Z,4.68
2022-10-18T12:15:24.354Z,4.22
2022-10-18T12:18:27.279Z,5.28
2022-10-18T12:21:34.184Z,4.43
2022-10-18T12:24:39.183Z,4.55
2022-10-18T12:27:48.841Z,6.28
2022-10-18T12:31:15.332Z,6.20
2022-10-18T12:34:23.441Z,6.85
2022-10-18T12:37:40.538Z,4.93
2022-10-18T12:40:45.830Z,5.05
2022-10-18T12:43:54.230Z,5.53
2022-10-18T12:46:58.474Z,6.57
2022-10-18T12:50:06.264Z,4.57
2022-10-18T12:56:30.212Z,4.93
2022-10-18T12:59:32.023Z,5.60
2022-10-18T13:02:34.113Z,7.15
2022-10-18T13:06:06.426Z,5.30
2022-10-18T13:09:20.912Z,4.60
2022-10-18T13:12:22.781Z,6.60
2022-10-18T13:15:45.349Z,7.07
2022-10-18T13:18:47.145Z,6.32
2022-10-18T13:22:12.786Z,7.03
2022-10-18T13:25:20.486Z,6.88
2022-10-18T13:28:39.623Z,5.93
2022-10-18T13:31:52.648Z,6.78
2022-10-18T13:34:54.658Z,5.95
2022-10-18T13:37:59.923Z,8.02
2022-10-18T13:41:11.842Z,6.28
2022-10-18T13:44:27.383Z,7.00
2022-10-18T13:47:37.610Z,6.55
2022-10-18T13:50:43.123Z,6.55
2022-10-18T13:54:13.883Z,7.00
2022-10-18T13:57:47.209Z,6.65
2022-10-18T14:01:23.239Z,6.93
2022-10-18T14:05:17.001Z,10.05
2022-10-18T14:12:08.931Z,7.60
2022-10-18T14:15:16.534Z,7.47
2022-10-18T14:18:30.070Z,9.30
2022-10-18T14:21:38.646Z,6.57
2022-10-18T14:24:46.306Z,8.38
2022-10-18T14:27:50.939Z,8.02
2022-10-18T14:30:56.785Z,7.43
2022-10-18T14:33:59.897Z,6.20
2022-10-18T14:37:02.010Z,8.38
2022-10-18T14:40:04.923Z,7.38
2022-10-18T14:43:12.802Z,9.73
2022-10-18T14:46:22.459Z,6.18
2022-10-18T14:49:24.367Z,7.07
2022-10-18T14:55:38.917Z,10.30
2022-10-18T14:58:42.301Z,6.05
2022-10-18T15:01:54.849Z,6.85
2022-10-18T15:05:05.571Z,6.95
2022-10-18T15:08:09.880Z,9.00
2022-10-18T15:11:14.518Z,6.93
2022-10-18T15:14:19.770Z,7.03
2022-10-18T15:17:27.949Z,8.25
2022-10-18T15:20:31.432Z,6.75
2022-10-18T15:23:33.394Z,7.45
2022-10-18T15:29:37.339Z,6.80
2022-10-18T15:35:48.788Z,6.75
2022-10-18T15:38:50.673Z,6.13
2022-10-18T15:41:56.650Z,7.75
2022-10-18T15:44:58.448Z,5.65
2022-10-18T15:48:06.562Z,6.57
2022-10-18T15:51:47.605Z,5.88
2022-10-18T15:54:49.583Z,6.35
2022-10-18T15:57:51.544Z,7.75
2022-10-18T16:00:59.313Z,5.30
2022-10-18T16:04:07.230Z,6.68
2022-10-18T16:07:11.432Z,6.45
2022-10-18T16:10:14.369Z,6.25
2022-10-18T16:13:16.354Z,8.82
2022-10-18T16:16:21.370Z,5.82
2022-10-18T16:19:23.443Z,7.40
2022-10-18T16:25:27.265Z,7.25
2022-10-18T16:31:33.443Z,7.22
2022-10-18T16:34:35.278Z,6.95
2022-10-18T16:37:37.155Z,7.38
2022-10-18T16:40:41.286Z,5.82
2022-10-18T16:43:46.010Z,5.05
2022-10-18T16:46:51.103Z,6.22
2022-10-18T16:49:55.817Z,6.35
2022-10-18T16:52:57.656Z,8.50
2022-10-18T16:56:02.105Z,6.45
2022-10-18T16:59:06.505Z,6.38
2022-10-18T17:02:09.541Z,7.35
2022-10-18T17:05:11.467Z,10.25
2022-10-18T17:08:20.326Z,9.32
2022-10-18T17:11:24.975Z,9.77
2022-10-18T17:14:26.780Z,12.55
2022-10-18T17:17:28.757Z,10.27
2022-10-18T17:20:30.836Z,9.70
2022-10-18T17:26:34.589Z,7.25
2022-10-18T17:29:36.448Z,6.25
2022-10-18T17:32:39.087Z,6.03
2022-10-18T17:35:41.996Z,5.28
2022-10-18T17:38:43.867Z,8.38
2022-10-18T17:41:45.746Z,6.88
2022-10-18T17:44:48.348Z,5.90
2022-10-18T17:47:50.352Z,13.68
2022-10-18T17:50:52.433Z,6.43
2022-10-18T17:53:54.511Z,6.72
2022-10-18T17:59:58.205Z,8.88
2022-10-18T18:03:00.850Z,8.63
2022-10-18T18:06:19.148Z,10.20
2022-10-18T18:09:21.053Z,10.00
2022-10-18T18:12:23.392Z,11.65
2022-10-18T18:15:25.356Z,10.48
2022-10-18T18:18:27.295Z,12.48
2022-10-18T18:21:29.292Z,10.75
2022-10-18T18:27:33.124Z,9.10
2022-10-18T18:30:34.943Z,11.85
2022-10-18T18:33:37.265Z,11.52
2022-10-18T18:36:39.617Z,13.52
2022-10-18T18:39:41.682Z,9.70
2022-10-18T18:45:50.855Z,9.90
2022-10-18T18:48:53.030Z,9.70
2022-10-18T18:54:56.668Z,15.45
2022-10-18T18:57:58.516Z,11.35
2022-10-18T19:01:07.286Z,9.85
2022-10-18T19:04:10.230Z,8.55
2022-10-18T19:07:12.168Z,10.90
2022-10-18T19:13:16.007Z,11.13
2022-10-18T19:16:25.696Z,12.52
2022-10-18T19:19:29.479Z,12.95
2022-10-18T19:22:31.394Z,14.75
2022-10-18T19:25:33.271Z,14.85
2022-10-18T19:28:35.204Z,17.48
2022-10-18T19:31:37.801Z,17.63
2022-10-18T19:34:40.594Z,15.88
2022-10-18T19:37:42.486Z,17.95
2022-10-18T19:40:44.401Z,19.90
2022-10-18T19:43:46.254Z,22.98
2022-10-18T19:46:48.594Z,20.75
2022-10-18T19:49:50.453Z,20.67
2022-10-18T19:52:52.281Z,21.55
2022-10-18T19:55:58.367Z,19.77
2022-10-18T19:59:00.473Z,21.40
2022-10-18T20:05:04.566Z,19.70
2022-10-18T20:08:06.635Z,18.38
2022-10-18T20:14:12.427Z,18.23
2022-10-18T20:17:14.302Z,21.95
2022-10-18T20:23:19.209Z,15.98
2022-10-18T20:26:21.833Z,17.50
2022-10-18T20:29:23.698Z,19.35
2022-10-18T20:32:25.673Z,23.42
2022-10-18T20:35:27.609Z,20.08
2022-10-18T20:38:36.711Z,17.95
2022-10-18T20:41:39.843Z,17.17
2022-10-18T20:44:41.984Z,14.68
2022-10-18T20:47:44.020Z,10.10
2022-10-18T20:50:46.073Z,10.27
2022-10-18T20:53:48.573Z,9.18
2022-10-18T20:56:50.513Z,10.77
2022-10-18T20:59:52.342Z,10.43
2022-10-18T21:02:57.589Z,8.65
2022-10-18T21:05:59.649Z,11.40
2022-10-18T21:09:04.659Z,11.45
2022-10-18T21:12:06.608Z,9.77
2022-10-18T21:15:09.030Z,8.27
2022-10-18T21:18:10.826Z,9.55
2022-10-18T21:21:15.953Z,8.32
2022-10-18T21:24:19.453Z,13.15
2022-10-18T21:27:21.422Z,10.93
2022-10-18T21:30:23.297Z,10.27
2022-10-18T21:33:25.200Z,9.38
2022-10-18T21:36:30.715Z,11.65
2022-10-18T21:39:32.614Z,10.57
2022-10-18T21:42:34.762Z,11.90
2022-10-18T21:45:36.924Z,11.63
2022-10-18T21:48:42.700Z,14.73
2022-10-18T21:51:44.801Z,12.82
2022-10-18T21:54:46.601Z,18.70
2022-10-18T21:57:48.528Z,17.10
2022-10-18T22:01:02.270Z,14.90
2022-10-18T22:04:07.041Z,15.13
2022-10-18T22:07:08.917Z,17.08
2022-10-18T22:10:10.767Z,14.45
2022-10-18T22:13:12.690Z,17.98
2022-10-18T22:16:15.874Z,18.50
2022-10-18T22:19:17.798Z,17.25
2022-10-18T22:22:19.665Z,16.58
2022-10-18T22:25:21.844Z,19.15
2022-10-18T22:28:23.714Z,18.95
2022-10-18T22:31:28.042Z,16.67
2022-10-18T22:34:29.982Z,17.52
2022-10-18T22:37:32.079Z,19.65
2022-10-18T22:40:37.126Z,17.73
2022-10-18T22:43:39.095Z,19.15
2022-10-18T22:46:42.034Z,16.92
2022-10-18T22:49:43.821Z,24.02
2022-10-18T22:52:50.511Z,32.97
2022-10-18T22:55:54.738Z,35.13
2022-10-18T22:58:56.629Z,37.92
2022-10-18T23:01:58.591Z,59.55
2022-10-18T23:05:00.495Z,80.10
2022-10-18T23:08:02.328Z,30.63
2022-10-18T23:11:04.144Z,61.78
2022-10-18T23:14:06.697Z,36.15
2022-10-18T23:17:08.669Z,44.20
2022-10-18T23:20:10.796Z,55.75
2022-10-18T23:23:13.551Z,129.88
2022-10-18T23:26:17.874Z,148.25
2022-10-18T23:29:19.828Z,114.88
2022-10-18T23:32:21.658Z,69.60
2022-10-18T23:35:23.748Z,80.97
2022-10-18T23:38:25.680Z,129.43
2022-10-18T23:41:27.674Z,36.45
2022-10-18T23:44:29.522Z,89.13
2022-10-18T23:47:31.619Z,80.38
2022-10-18T23:50:34.101Z,57.88
2022-10-18T23:56:38.014Z,88.28
2022-10-18T23:59:39.965Z,50.75
